sensor_id;sensor_type;location;lat;lon;timestamp;pressure;altitude;pressure_sealevel;temperature;humidity
19890;BME280;10107;51.198;6.824;2023-05-01T00:01:41;-21589.16;;;10.29;97.86
19890;BME280;10107;51.198;6.824;2023-05-01T00:05:43;-21587.03;;;10.21;99.80
19890;BME280;10107;51.198;6.824;2023-05-01T00:09:47;-21586.22;;;10.18;99.88
19890;BME280;10107;51.198;6.824;2023-05-01T00:13:48;-21585.16;;;10.14;100.00
19890;BME280;10107;51.198;6.824;2023-05-01T00:17:52;-21584.78;;;10.12;100.00
19890;BME280;10107;51.198;6.824;2023-05-01T00:21:53;-21584.50;;;10.11;100.00
19890;BME280;10107;51.198;6.824;2023-05-01T00:25:56;-21583.84;;;10.08;100.00
19890;BME280;10107;51.198;6.824;2023-05-01T00:29:58;-21583.44;;;10.07;100.00
19890;BME280;10107;51.198;6.824;2023-05-01T00:33:59;-21582.38;;;10.03;100.00
19890;BME280;10107;51.198;6.824;2023-05-01T00:38:01;-21581.59;;;10.00;100.00
19890;BME280;10107;51.198;6.824;2023-05-01T00:42:05;-21581.19;;;9.98;100.00
19890;BME280;10107;51.198;6.824;2023-05-01T00:46:07;-21581.59;;;10.00;100.00
19890;BME280;10107;51.198;6.824;2023-05-01T00:50:09;-21580.66;;;9.96;100.00
19890;BME280;10107;51.198;6.824;2023-05-01T00:54:11;-21580.41;;;9.95;100.00
19890;BME280;10107;51.198;6.824;2023-05-01T00:58:16;-21580.66;;;9.96;100.00
19890;BME280;10107;51.198;6.824;2023-05-01T01:02:18;-21579.34;;;9.91;100.00
19890;BME280;10107;51.198;6.824;2023-05-01T01:06:25;-21578.69;;;9.88;100.00
19890;BME280;10107;51.198;6.824;2023-05-01T01:10:36;-21577.47;;;9.84;100.00
19890;BME280;10107;51.198;6.824;2023-05-01T01:14:48;-21576.16;;;9.79;100.00
19890;BME280;10107;51.198;6.824;2023-05-01T01:18:55;-21574.16;;;9.71;100.00
19890;BME280;10107;51.198;6.824;2023-05-01T01:28:04;-21569.13;;;9.51;100.00
19890;BME280;10107;51.198;6.824;2023-05-01T01:32:33;-21567.81;;;9.46;100.00
19890;BME280;10107;51.198;6.824;2023-05-01T01:36:48;-21565.81;;;9.39;100.00
19890;BME280;10107;51.198;6.824;2023-05-01T01:40:55;-21564.75;;;9.35;100.00
19890;BME280;10107;51.198;6.824;2023-05-01T01:45:01;-21564.09;;;9.32;100.00
19890;BME280;10107;51.198;6.824;2023-05-01T01:49:08;-21562.75;;;9.27;100.00
19890;BME280;10107;51.198;6.824;2023-05-01T01:53:17;-21561.81;;;9.23;100.00
19890;BME280;10107;51.198;6.824;2023-05-01T01:57:20;-21561.28;;;9.21;100.00
19890;BME280;10107;51.198;6.824;2023-05-01T02:01:24;-21560.09;;;9.17;100.00
19890;BME280;10107;51.198;6.824;2023-05-01T02:05:27;-21560.38;;;9.18;100.00
19890;BME280;10107;51.198;6.824;2023-05-01T02:09:30;-21560.22;;;9.17;100.00
19890;BME280;10107;51.198;6.824;2023-05-01T02:13:35;-21560.38;;;9.18;100.00
19890;BME280;10107;51.198;6.824;2023-05-01T02:17:39;-21559.44;;;9.14;100.00
19890;BME280;10107;51.198;6.824;2023-05-01T02:21:43;-21558.13;;;9.09;100.00
19890;BME280;10107;51.198;6.824;2023-05-01T02:25:47;-21557.72;;;9.07;100.00
19890;BME280;10107;51.198;6.824;2023-05-01T02:29:50;-21556.50;;;9.03;100.00
19890;BME280;10107;51.198;6.824;2023-05-01T02:33:52;-21555.97;;;9.01;100.00
19890;BME280;10107;51.198;6.824;2023-05-01T02:37:54;-21555.31;;;8.98;100.00
19890;BME280;10107;51.198;6.824;2023-05-01T02:41:59;-21554.38;;;8.95;100.00
19890;BME280;10107;51.198;6.824;2023-05-01T02:46:03;-21553.72;;;8.92;100.00
19890;BME280;10107;51.198;6.824;2023-05-01T02:50:07;-21553.31;;;8.90;100.00
19890;BME280;10107;51.198;6.824;2023-05-01T02:54:11;-21552.53;;;8.87;100.00
19890;BME280;10107;51.198;6.824;2023-05-01T02:58:18;-21552.25;;;8.86;100.00
19890;BME280;10107;51.198;6.824;2023-05-01T03:02:20;-21551.19;;;8.82;100.00
19890;BME280;10107;51.198;6.824;2023-05-01T03:06:22;-21550.66;;;8.80;100.00
19890;BME280;10107;51.198;6.824;2023-05-01T03:10:24;-21549.59;;;8.76;100.00
19890;BME280;10107;51.198;6.824;2023-05-01T03:14:27;-21549.47;;;8.76;100.00
19890;BME280;10107;51.198;6.824;2023-05-01T03:18:29;-21548.41;;;8.71;100.00
19890;BME280;10107;51.198;6.824;2023-05-01T03:22:30;-21546.94;;;8.66;100.00
19890;BME280;10107;51.198;6.824;2023-05-01T03:26:33;-21546.41;;;8.64;100.00
19890;BME280;10107;51.198;6.824;2023-05-01T03:30:36;-21545.50;;;8.60;100.00
19890;BME280;10107;51.198;6.824;2023-05-01T03:34:39;-21544.28;;;8.56;100.00
19890;BME280;10107;51.198;6.824;2023-05-01T03:38:41;-21542.97;;;8.50;100.00
19890;BME280;10107;51.198;6.824;2023-05-01T03:42:43;-21541.91;;;8.46;100.00
19890;BME280;10107;51.198;6.824;2023-05-01T03:46:54;-21541.78;;;8.46;100.00
19890;BME280;10107;51.198;6.824;2023-05-01T03:50:59;-21540.97;;;8.43;100.00
19890;BME280;10107;51.198;6.824;2023-05-01T03:55:02;-21540.97;;;8.43;100.00
19890;BME280;10107;51.198;6.824;2023-05-01T03:59:13;-21540.72;;;8.42;100.00
19890;BME280;10107;51.198;6.824;2023-05-01T04:03:17;-21540.56;;;8.41;100.00
19890;BME280;10107;51.198;6.824;2023-05-01T04:07:21;-21539.91;;;8.39;100.00
19890;BME280;10107;51.198;6.824;2023-05-01T04:11:24;-21540.44;;;8.41;100.00
19890;BME280;10107;51.198;6.824;2023-05-01T04:15:25;-21540.03;;;8.39;100.00
19890;BME280;10107;51.198;6.824;2023-05-01T04:19:31;-21541.38;;;8.44;100.00
19890;BME280;10107;51.198;6.824;2023-05-01T04:23:34;-21542.16;;;8.47;100.00
19890;BME280;10107;51.198;6.824;2023-05-01T04:27:36;-21543.38;;;8.52;100.00
19890;BME280;10107;51.198;6.824;2023-05-01T04:31:37;-21544.03;;;8.55;100.00
19890;BME280;10107;51.198;6.824;2023-05-01T04:35:42;-21545.91;;;8.62;100.00
19890;BME280;10107;51.198;6.824;2023-05-01T04:39:43;-21548.53;;;8.72;100.00
19890;BME280;10107;51.198;6.824;2023-05-01T04:43:45;-21551.34;;;8.83;100.00
19890;BME280;10107;51.198;6.824;2023-05-01T04:47:51;-21554.38;;;8.95;100.00
19890;BME280;10107;51.198;6.824;2023-05-01T04:51:55;-21557.72;;;9.07;100.00
19890;BME280;10107;51.198;6.824;2023-05-01T04:56:00;-21561.97;;;9.24;100.00
19890;BME280;10107;51.198;6.824;2023-05-01T05:00:04;-21567.28;;;9.44;100.00
19890;BME280;10107;51.198;6.824;2023-05-01T05:04:09;-21572.84;;;9.66;100.00
19890;BME280;10107;51.198;6.824;2023-05-01T05:08:12;-21579.34;;;9.91;100.00
19890;BME280;10107;51.198;6.824;2023-05-01T05:12:18;-21588.09;;;10.25;100.00
19890;BME280;10107;51.198;6.824;2023-05-01T05:16:20;-21595.78;;;10.55;100.00
19890;BME280;10107;51.198;6.824;2023-05-01T05:20:21;-21605.19;;;10.91;100.00
19890;BME280;10107;51.198;6.824;2023-05-01T05:24:24;-21614.31;;;11.26;99.38
19890;BME280;10107;51.198;6.824;2023-05-01T05:28:26;-21620.53;;;11.50;96.89
19890;BME280;10107;51.198;6.824;2023-05-01T05:32:28;-21625.81;;;11.71;92.69
19890;BME280;10107;51.198;6.824;2023-05-01T05:36:30;-21632.03;;;11.95;89.64
19890;BME280;10107;51.198;6.824;2023-05-01T05:40:34;-21639.44;;;12.24;87.48
19890;BME280;10107;51.198;6.824;2023-05-01T05:44:36;-21648.69;;;12.60;84.72
19890;BME280;10107;51.198;6.824;2023-05-01T05:48:38;-21654.63;;;12.83;80.36
19890;BME280;10107;51.198;6.824;2023-05-01T05:52:41;-21658.97;;;13.00;77.79
19890;BME280;10107;51.198;6.824;2023-05-01T05:56:44;-21664.38;;;13.21;76.16
19890;BME280;10107;51.198;6.824;2023-05-01T06:00:46;-21665.16;;;13.24;75.26
19890;BME280;10107;51.198;6.824;2023-05-01T06:04:48;-21667.81;;;13.34;74.34
19890;BME280;10107;51.198;6.824;2023-05-01T06:08:52;-21670.84;;;13.46;73.93
19890;BME280;10107;51.198;6.824;2023-05-01T06:12:56;-21675.59;;;13.64;71.79
19890;BME280;10107;51.198;6.824;2023-05-01T06:16:58;-21678.09;;;13.74;70.24
19890;BME280;10107;51.198;6.824;2023-05-01T06:20:59;-21680.59;;;13.84;70.28
19890;BME280;10107;51.198;6.824;2023-05-01T06:25:01;-21683.22;;;13.94;69.45
19890;BME280;10107;51.198;6.824;2023-05-01T06:29:05;-21683.50;;;13.95;68.21
19890;BME280;10107;51.198;6.824;2023-05-01T06:33:07;-21685.34;;;14.02;67.41
19890;BME280;10107;51.198;6.824;2023-05-01T06:37:11;-21685.22;;;14.02;66.14
19890;BME280;10107;51.198;6.824;2023-05-01T06:41:13;-21687.31;;;14.10;66.63
19890;BME280;10107;51.198;6.824;2023-05-01T06:45:16;-21692.97;;;14.32;64.65
19890;BME280;10107;51.198;6.824;2023-05-01T06:49:17;-21700.22;;;14.60;64.62
19890;BME280;10107;51.198;6.824;2023-05-01T06:53:19;-21709.31;;;14.96;62.44
19890;BME280;10107;51.198;6.824;2023-05-01T06:57:21;-21711.28;;;15.03;59.80
19890;BME280;10107;51.198;6.824;2023-05-01T07:01:24;-21716.66;;;15.24;59.48
19890;BME280;10107;51.198;6.824;2023-05-01T07:05:25;-21713.09;;;15.11;59.47
19890;BME280;10107;51.198;6.824;2023-05-01T07:09:27;-21716.28;;;15.23;59.54
19890;BME280;10107;51.198;6.824;2023-05-01T07:13:28;-21722.19;;;15.46;57.42
19890;BME280;10107;51.198;6.824;2023-05-01T07:17:31;-21731.78;;;15.83;58.57
19890;BME280;10107;51.198;6.824;2023-05-01T07:21:33;-21735.06;;;15.96;56.21
19890;BME280;10107;51.198;6.824;2023-05-01T07:25:35;-21741.22;;;16.20;55.37
19890;BME280;10107;51.198;6.824;2023-05-01T07:29:37;-21761.94;;;17.01;54.65
19890;BME280;10107;51.198;6.824;2023-05-01T07:33:40;-21779.91;;;17.72;50.76
19890;BME280;10107;51.198;6.824;2023-05-01T07:37:42;-21783.16;;;17.85;49.71
19890;BME280;10107;51.198;6.824;2023-05-01T07:41:43;-21792.84;;;18.23;49.74
19890;BME280;10107;51.198;6.824;2023-05-01T07:45:53;-21801.75;;;18.57;48.45
19890;BME280;10107;51.198;6.824;2023-05-01T07:49:57;-21794.81;;;18.30;48.22
19890;BME280;10107;51.198;6.824;2023-05-01T07:54:00;-21801.75;;;18.57;48.28
19890;BME280;10107;51.198;6.824;2023-05-01T07:58:03;-21824.72;;;19.48;45.33
19890;BME280;10107;51.198;6.824;2023-05-01T08:02:05;-21860.56;;;20.89;42.59
19890;BME280;10107;51.198;6.824;2023-05-01T08:06:08;-21885.94;;;21.89;39.77
19890;BME280;10107;51.198;6.824;2023-05-01T08:10:10;-21910.34;;;22.85;37.55
19890;BME280;10107;51.198;6.824;2023-05-01T08:14:11;-21914.09;;;23.00;37.07
19890;BME280;10107;51.198;6.824;2023-05-01T08:18:14;-21918.25;;;23.17;36.41
19890;BME280;10107;51.198;6.824;2023-05-01T08:22:21;-21970.25;;;25.23;34.15
19890;BME280;10107;51.198;6.824;2023-05-01T08:26:22;-22022.69;;;27.32;30.36
19890;BME280;10107;51.198;6.824;2023-05-01T08:30:24;-22009.72;;;26.80;30.06
19890;BME280;10107;51.198;6.824;2023-05-01T08:34:26;-22005.06;;;26.61;30.61
19890;BME280;10107;51.198;6.824;2023-05-01T08:38:29;-22004.44;;;26.59;30.41
19890;BME280;10107;51.198;6.824;2023-05-01T08:42:30;-21991.66;;;26.08;31.17
19890;BME280;10107;51.198;6.824;2023-05-01T08:46:37;-21991.41;;;26.07;31.42
19890;BME280;10107;51.198;6.824;2023-05-01T08:50:44;-21988.97;;;25.97;31.19
19890;BME280;10107;51.198;6.824;2023-05-01T08:54:49;-21979.16;;;25.58;30.97
19890;BME280;10107;51.198;6.824;2023-05-01T08:58:54;-21963.94;;;24.98;32.08
19890;BME280;10107;51.198;6.824;2023-05-01T09:02:59;-21975.28;;;25.43;31.55
19890;BME280;10107;51.198;6.824;2023-05-01T09:07:02;-21995.28;;;26.22;30.73
19890;BME280;10107;51.198;6.824;2023-05-01T09:11:05;-22014.34;;;26.98;29.61
19890;BME280;10107;51.198;6.824;2023-05-01T09:15:08;-22006.09;;;26.65;30.15
19890;BME280;10107;51.198;6.824;2023-05-01T09:19:10;-22003.25;;;26.54;30.91
19890;BME280;10107;51.198;6.824;2023-05-01T09:23:12;-22022.06;;;27.29;28.85
19890;BME280;10107;51.198;6.824;2023-05-01T09:27:15;-22049.53;;;28.39;28.23
19890;BME280;10107;51.198;6.824;2023-05-01T09:31:21;-22074.66;;;29.39;26.42
19890;BME280;10107;51.198;6.824;2023-05-01T09:35:23;-22087.97;;;29.93;26.40
19890;BME280;10107;51.198;6.824;2023-05-01T09:39:26;-22099.63;;;30.39;25.40
19890;BME280;10107;51.198;6.824;2023-05-01T09:43:29;-22108.16;;;30.74;24.48
19890;BME280;10107;51.198;6.824;2023-05-01T09:47:32;-22072.09;;;29.29;25.64
19890;BME280;10107;51.198;6.824;2023-05-01T09:51:34;-22035.69;;;27.83;27.45
19890;BME280;10107;51.198;6.824;2023-05-01T09:55:36;-22012.91;;;26.93;30.18
19890;BME280;10107;51.198;6.824;2023-05-01T09:59:39;-21996.19;;;26.26;31.14
19890;BME280;10107;51.198;6.824;2023-05-01T10:03:42;-22006.09;;;26.65;29.72
19890;BME280;10107;51.198;6.824;2023-05-01T10:07:59;-22031.44;;;27.67;30.15
19890;BME280;10107;51.198;6.824;2023-05-01T10:12:03;-22043.13;;;28.13;27.51
19890;BME280;10107;51.198;6.824;2023-05-01T10:16:07;-22061.84;;;28.88;27.37
19890;BME280;10107;51.198;6.824;2023-05-01T10:20:27;-22076.84;;;29.48;26.85
19890;BME280;10107;51.198;6.824;2023-05-01T10:24:29;-22084.78;;;29.80;26.40
19890;BME280;10107;51.198;6.824;2023-05-01T10:28:32;-22101.16;;;30.46;25.93
19890;BME280;10107;51.198;6.824;2023-05-01T10:32:36;-22104.47;;;30.59;27.37
19890;BME280;10107;51.198;6.824;2023-05-01T10:36:42;-22108.16;;;30.74;25.29
19890;BME280;10107;51.198;6.824;2023-05-01T10:40:46;-22115.97;;;31.05;24.07
19890;BME280;10107;51.198;6.824;2023-05-01T10:44:48;-22129.88;;;31.61;24.96
19890;BME280;10107;51.198;6.824;2023-05-01T10:48:57;-22144.78;;;32.21;24.87
19890;BME280;10107;51.198;6.824;2023-05-01T10:53:19;-22159.00;;;32.79;24.08
19890;BME280;10107;51.198;6.824;2023-05-01T10:57:42;-22146.69;;;32.29;23.61
19890;BME280;10107;51.198;6.824;2023-05-01T11:01:45;-22126.69;;;31.48;26.09
19890;BME280;10107;51.198;6.824;2023-05-01T11:06:08;-22102.31;;;30.50;25.30
19890;BME280;10107;51.198;6.824;2023-05-01T11:10:24;-22100.50;;;30.43;25.61
19890;BME280;10107;51.198;6.824;2023-05-01T11:14:27;-22107.91;;;30.73;26.12
19890;BME280;10107;51.198;6.824;2023-05-01T11:18:46;-22126.94;;;31.49;24.42
19890;BME280;10107;51.198;6.824;2023-05-01T11:22:50;-22132.16;;;31.70;24.18
19890;BME280;10107;51.198;6.824;2023-05-01T11:26:52;-22112.66;;;30.92;24.38
19890;BME280;10107;51.198;6.824;2023-05-01T11:30:55;-22109.69;;;30.80;24.97
19890;BME280;10107;51.198;6.824;2023-05-01T11:34:56;-22105.88;;;30.65;24.62
19890;BME280;10107;51.198;6.824;2023-05-01T11:39:00;-22116.34;;;31.07;24.61
19890;BME280;10107;51.198;6.824;2023-05-01T11:43:02;-22121.31;;;31.27;24.13
19890;BME280;10107;51.198;6.824;2023-05-01T11:47:04;-22106.25;;;30.66;24.07
19890;BME280;10107;51.198;6.824;2023-05-01T11:51:12;-22113.03;;;30.93;24.21
19890;BME280;10107;51.198;6.824;2023-05-01T11:55:15;-22125.28;;;31.43;24.43
19890;BME280;10107;51.198;6.824;2023-05-01T11:59:17;-22117.75;;;31.12;23.52
19890;BME280;10107;51.198;6.824;2023-05-01T12:03:19;-22078.75;;;29.56;25.82
19890;BME280;10107;51.198;6.824;2023-05-01T12:07:22;-22043.25;;;28.14;26.83
19890;BME280;10107;51.198;6.824;2023-05-01T12:11:26;-22024.88;;;27.40;27.89
19890;BME280;10107;51.198;6.824;2023-05-01T12:15:27;-22027.06;;;27.49;28.32
19890;BME280;10107;51.198;6.824;2023-05-01T12:19:29;-22022.44;;;27.31;27.99
19890;BME280;10107;51.198;6.824;2023-05-01T12:23:33;-21999.16;;;26.38;27.79
19890;BME280;10107;51.198;6.824;2023-05-01T12:27:42;-21980.72;;;25.64;29.18
19890;BME280;10107;51.198;6.824;2023-05-01T12:31:47;-21964.31;;;24.99;30.00
19890;BME280;10107;51.198;6.824;2023-05-01T12:35:49;-21963.78;;;24.97;30.87
19890;BME280;10107;51.198;6.824;2023-05-01T12:39:51;-21974.66;;;25.40;30.68
19890;BME280;10107;51.198;6.824;2023-05-01T12:43:54;-21958.75;;;24.77;30.67
19890;BME280;10107;51.198;6.824;2023-05-01T12:47:56;-21955.66;;;24.65;30.85
19890;BME280;10107;51.198;6.824;2023-05-01T12:51:59;-21952.44;;;24.52;31.84
19890;BME280;10107;51.198;6.824;2023-05-01T12:56:01;-21944.78;;;24.22;30.69
19890;BME280;10107;51.198;6.824;2023-05-01T13:00:05;-21930.56;;;23.65;31.15
19890;BME280;10107;51.198;6.824;2023-05-01T13:04:09;-21920.31;;;23.25;32.97
19890;BME280;10107;51.198;6.824;2023-05-01T13:08:11;-21916.69;;;23.10;33.92
19890;BME280;10107;51.198;6.824;2023-05-01T13:12:13;-21915.66;;;23.06;36.98
19890;BME280;10107;51.198;6.824;2023-05-01T13:16:16;-21913.44;;;22.98;36.59
19890;BME280;10107;51.198;6.824;2023-05-01T13:20:24;-21905.66;;;22.67;35.41
19890;BME280;10107;51.198;6.824;2023-05-01T13:24:35;-21901.66;;;22.51;36.46
19890;BME280;10107;51.198;6.824;2023-05-01T13:28:42;-21896.97;;;22.32;36.82
19890;BME280;10107;51.198;6.824;2023-05-01T13:32:47;-21885.16;;;21.86;36.97
19890;BME280;10107;51.198;6.824;2023-05-01T13:36:49;-21872.53;;;21.36;38.39
19890;BME280;10107;51.198;6.824;2023-05-01T13:40:51;-21856.00;;;20.71;40.40
19890;BME280;10107;51.198;6.824;2023-05-01T13:44:54;-21844.94;;;20.27;41.49
19890;BME280;10107;51.198;6.824;2023-05-01T13:49:02;-21832.69;;;19.79;40.54
19890;BME280;10107;51.198;6.824;2023-05-01T13:53:05;-21825.25;;;19.50;39.57
19890;BME280;10107;51.198;6.824;2023-05-01T13:57:07;-21826.16;;;19.53;39.70
19890;BME280;10107;51.198;6.824;2023-05-01T14:01:15;-21830.19;;;19.69;39.76
19890;BME280;10107;51.198;6.824;2023-05-01T14:05:23;-21835.69;;;19.91;39.52
19890;BME280;10107;51.198;6.824;2023-05-01T14:09:26;-21838.44;;;20.02;36.79
19890;BME280;10107;51.198;6.824;2023-05-01T14:13:28;-21843.38;;;20.21;38.17
19890;BME280;10107;51.198;6.824;2023-05-01T14:17:32;-21845.59;;;20.30;36.00
19890;BME280;10107;51.198;6.824;2023-05-01T14:21:39;-21848.31;;;20.41;35.84
19890;BME280;10107;51.198;6.824;2023-05-01T14:25:44;-21848.84;;;20.43;36.43
19890;BME280;10107;51.198;6.824;2023-05-01T14:29:46;-21849.75;;;20.46;36.73
19890;BME280;10107;51.198;6.824;2023-05-01T14:33:50;-21852.25;;;20.56;35.20
19890;BME280;10107;51.198;6.824;2023-05-01T14:37:54;-21857.56;;;20.77;35.64
19890;BME280;10107;51.198;6.824;2023-05-01T14:41:56;-21859.78;;;20.86;36.13
19890;BME280;10107;51.198;6.824;2023-05-01T14:45:58;-21848.19;;;20.40;38.57
19890;BME280;10107;51.198;6.824;2023-05-01T14:50:00;-21830.34;;;19.70;40.58
19890;BME280;10107;51.198;6.824;2023-05-01T14:54:03;-21820.94;;;19.33;41.90
19890;BME280;10107;51.198;6.824;2023-05-01T14:58:05;-21815.47;;;19.11;42.58
19890;BME280;10107;51.198;6.824;2023-05-01T15:02:07;-21807.63;;;18.80;43.54
19890;BME280;10107;51.198;6.824;2023-05-01T15:06:09;-21800.97;;;18.54;44.70
19890;BME280;10107;51.198;6.824;2023-05-01T15:10:12;-21795.47;;;18.33;45.25
19890;BME280;10107;51.198;6.824;2023-05-01T15:14:14;-21792.97;;;18.23;46.04
19890;BME280;10107;51.198;6.824;2023-05-01T15:18:16;-21795.84;;;18.34;47.18
19890;BME280;10107;51.198;6.824;2023-05-01T15:22:17;-21797.56;;;18.41;49.29
19890;BME280;10107;51.198;6.824;2023-05-01T15:26:20;-21794.28;;;18.28;51.85
19890;BME280;10107;51.198;6.824;2023-05-01T15:30:22;-21796.91;;;18.38;52.32
19890;BME280;10107;51.198;6.824;2023-05-01T15:34:24;-21800.56;;;18.53;51.91
19890;BME280;10107;51.198;6.824;2023-05-01T15:38:26;-21800.97;;;18.54;53.25
19890;BME280;10107;51.198;6.824;2023-05-01T15:42:29;-21796.00;;;18.35;54.23
19890;BME280;10107;51.198;6.824;2023-05-01T15:46:30;-21790.09;;;18.12;54.99
19890;BME280;10107;51.198;6.824;2023-05-01T15:50:32;-21786.03;;;17.96;55.59
19890;BME280;10107;51.198;6.824;2023-05-01T15:54:34;-21786.03;;;17.96;56.41
19890;BME280;10107;51.198;6.824;2023-05-01T15:58:37;-21792.31;;;18.20;55.68
19890;BME280;10107;51.198;6.824;2023-05-01T16:02:38;-21797.94;;;18.43;56.80
19890;BME280;10107;51.198;6.824;2023-05-01T16:06:40;-21803.97;;;18.66;55.96
19890;BME280;10107;51.198;6.824;2023-05-01T16:10:42;-21802.41;;;18.60;54.75
19890;BME280;10107;51.198;6.824;2023-05-01T16:14:47;-21800.97;;;18.54;55.12
19890;BME280;10107;51.198;6.824;2023-05-01T16:18:52;-21795.72;;;18.34;56.25
19890;BME280;10107;51.198;6.824;2023-05-01T16:22:54;-21791.41;;;18.17;57.14
19890;BME280;10107;51.198;6.824;2023-05-01T16:26:56;-21784.75;;;17.91;59.08
19890;BME280;10107;51.198;6.824;2023-05-01T16:30:59;-21785.53;;;17.94;59.76
19890;BME280;10107;51.198;6.824;2023-05-01T16:35:01;-21785.53;;;17.94;60.55
19890;BME280;10107;51.198;6.824;2023-05-01T16:39:04;-21784.75;;;17.91;62.05
19890;BME280;10107;51.198;6.824;2023-05-01T16:43:06;-21783.56;;;17.86;61.28
19890;BME280;10107;51.198;6.824;2023-05-01T16:47:10;-21781.97;;;17.80;62.66
19890;BME280;10107;51.198;6.824;2023-05-01T16:51:12;-21780.16;;;17.73;61.63
19890;BME280;10107;51.198;6.824;2023-05-01T16:55:14;-21776.22;;;17.57;63.36
19890;BME280;10107;51.198;6.824;2023-05-01T16:59:16;-21773.34;;;17.46;63.20
19890;BME280;10107;51.198;6.824;2023-05-01T17:03:19;-21769.41;;;17.31;64.78
19890;BME280;10107;51.198;6.824;2023-05-01T17:07:21;-21764.19;;;17.10;68.35
19890;BME280;10107;51.198;6.824;2023-05-01T17:11:23;-21761.81;;;17.01;69.89
19890;BME280;10107;51.198;6.824;2023-05-01T17:15:25;-21762.09;;;17.02;71.18
19890;BME280;10107;51.198;6.824;2023-05-01T17:19:28;-21759.59;;;16.92;71.39
19890;BME280;10107;51.198;6.824;2023-05-01T17:23:29;-21757.63;;;16.85;72.54
19890;BME280;10107;51.198;6.824;2023-05-01T17:27:31;-21754.75;;;16.73;73.99
19890;BME280;10107;51.198;6.824;2023-05-01T17:31:33;-21755.00;;;16.74;73.72
19890;BME280;10107;51.198;6.824;2023-05-01T17:35:36;-21755.00;;;16.74;73.73
19890;BME280;10107;51.198;6.824;2023-05-01T17:39:37;-21754.47;;;16.72;71.26
19890;BME280;10107;51.198;6.824;2023-05-01T17:43:39;-21754.59;;;16.73;70.34
19890;BME280;10107;51.198;6.824;2023-05-01T17:47:41;-21755.66;;;16.77;69.46
19890;BME280;10107;51.198;6.824;2023-05-01T17:51:45;-21755.53;;;16.76;70.35
19890;BME280;10107;51.198;6.824;2023-05-01T17:55:47;-21753.16;;;16.67;70.04
19890;BME280;10107;51.198;6.824;2023-05-01T17:59:49;-21750.16;;;16.55;69.41
19890;BME280;10107;51.198;6.824;2023-05-01T18:03:50;-21747.91;;;16.47;70.49
19890;BME280;10107;51.198;6.824;2023-05-01T18:07:54;-21742.81;;;16.27;72.17
19890;BME280;10107;51.198;6.824;2023-05-01T18:11:56;-21735.59;;;15.98;73.73
19890;BME280;10107;51.198;6.824;2023-05-01T18:15:57;-21730.59;;;15.79;75.09
19890;BME280;10107;51.198;6.824;2023-05-01T18:19:59;-21724.16;;;15.54;75.67
19890;BME280;10107;51.198;6.824;2023-05-01T18:24:03;-21719.81;;;15.37;77.33
19890;BME280;10107;51.198;6.824;2023-05-01T18:28:05;-21714.56;;;15.16;79.36
19890;BME280;10107;51.198;6.824;2023-05-01T18:32:07;-21708.91;;;14.94;81.57
19890;BME280;10107;51.198;6.824;2023-05-01T18:36:10;-21705.22;;;14.80;83.98
19890;BME280;10107;51.198;6.824;2023-05-01T18:40:13;-21702.59;;;14.70;85.81
19890;BME280;10107;51.198;6.824;2023-05-01T18:44:15;-21700.88;;;14.63;86.99
19890;BME280;10107;51.198;6.824;2023-05-01T18:48:17;-21698.25;;;14.53;88.21
19890;BME280;10107;51.198;6.824;2023-05-01T18:52:18;-21694.94;;;14.40;89.77
19890;BME280;10107;51.198;6.824;2023-05-01T18:56:21;-21691.13;;;14.25;91.24
19890;BME280;10107;51.198;6.824;2023-05-01T19:00:23;-21687.44;;;14.11;92.61
19890;BME280;10107;51.198;6.824;2023-05-01T19:04:26;-21684.28;;;13.98;93.76
19890;BME280;10107;51.198;6.824;2023-05-01T19:08:28;-21679.94;;;13.81;95.47
19890;BME280;10107;51.198;6.824;2023-05-01T19:12:32;-21676.25;;;13.67;96.73
19890;BME280;10107;51.198;6.824;2023-05-01T19:16:34;-21674.28;;;13.59;98.03
19890;BME280;10107;51.198;6.824;2023-05-01T19:20:35;-21672.81;;;13.54;99.14
19890;BME280;10107;51.198;6.824;2023-05-01T19:24:37;-21672.16;;;13.51;100.00
19890;BME280;10107;51.198;6.824;2023-05-01T19:28:41;-21672.56;;;13.53;100.00
19890;BME280;10107;51.198;6.824;2023-05-01T19:32:43;-21671.63;;;13.49;100.00
19890;BME280;10107;51.198;6.824;2023-05-01T19:36:45;-21670.44;;;13.44;100.00
19890;BME280;10107;51.198;6.824;2023-05-01T19:40:46;-21668.22;;;13.36;100.00
19890;BME280;10107;51.198;6.824;2023-05-01T19:44:49;-21668.22;;;13.36;100.00
19890;BME280;10107;51.198;6.824;2023-05-01T19:48:51;-21666.22;;;13.28;100.00
19890;BME280;10107;51.198;6.824;2023-05-01T19:52:53;-21664.63;;;13.22;100.00
19890;BME280;10107;51.198;6.824;2023-05-01T19:56:55;-21663.97;;;13.19;100.00
19890;BME280;10107;51.198;6.824;2023-05-01T20:00:57;-21663.19;;;13.16;100.00
19890;BME280;10107;51.198;6.824;2023-05-01T20:05:01;-21661.34;;;13.09;100.00
19890;BME280;10107;51.198;6.824;2023-05-01T20:09:03;-21659.63;;;13.02;100.00
19890;BME280;10107;51.198;6.824;2023-05-01T20:13:06;-21656.47;;;12.90;100.00
19890;BME280;10107;51.198;6.824;2023-05-01T20:17:11;-21653.56;;;12.79;100.00
19890;BME280;10107;51.198;6.824;2023-05-01T20:21:12;-21651.31;;;12.70;100.00
19890;BME280;10107;51.198;6.824;2023-05-01T20:25:14;-21649.22;;;12.62;100.00
19890;BME280;10107;51.198;6.824;2023-05-01T20:29:16;-21647.75;;;12.56;100.00
19890;BME280;10107;51.198;6.824;2023-05-01T20:33:19;-21647.22;;;12.54;100.00
19890;BME280;10107;51.198;6.824;2023-05-01T20:37:21;-21646.31;;;12.51;100.00
19890;BME280;10107;51.198;6.824;2023-05-01T20:41:22;-21643.78;;;12.41;100.00
19890;BME280;10107;51.198;6.824;2023-05-01T20:45:24;-21642.59;;;12.36;100.00
19890;BME280;10107;51.198;6.824;2023-05-01T20:49:27;-21641.53;;;12.32;100.00
19890;BME280;10107;51.198;6.824;2023-05-01T20:53:29;-21640.50;;;12.28;100.00
19890;BME280;10107;51.198;6.824;2023-05-01T20:57:31;-21640.50;;;12.28;100.00
19890;BME280;10107;51.198;6.824;2023-05-01T21:01:33;-21638.63;;;12.21;100.00
19890;BME280;10107;51.198;6.824;2023-05-01T21:05:36;-21637.72;;;12.17;100.00
19890;BME280;10107;51.198;6.824;2023-05-01T21:09:42;-21636.66;;;12.13;100.00
19890;BME280;10107;51.198;6.824;2023-05-01T21:13:44;-21635.19;;;12.07;100.00